sensor_id;sensor_type;location;lat;lon;timestamp;pressure;altitude;pressure_sealevel;temperature;humidity
46782;BME280;32541;46.298;11.506;2023-04-07T00:01:52;89375.47;;;1.08;55.46
46782;BME280;32541;46.298;11.506;2023-04-07T00:04:18;89380.78;;;1.13;54.49
46782;BME280;32541;46.298;11.506;2023-04-07T00:06:43;89372.66;;;1.13;53.82
46782;BME280;32541;46.298;11.506;2023-04-07T00:09:09;89369.50;;;1.23;53.81
46782;BME280;32541;46.298;11.506;2023-04-07T00:11:35;89369.91;;;1.27;53.07
46782;BME280;32541;46.298;11.506;2023-04-07T00:14:01;89366.75;;;1.36;52.99
46782;BME280;32541;46.298;11.506;2023-04-07T00:16:27;89377.03;;;1.37;52.97
46782;BME280;32541;46.298;11.506;2023-04-07T00:18:52;89377.97;;;1.40;53.09
46782;BME280;32541;46.298;11.506;2023-04-07T00:21:17;89374.75;;;1.41;53.78
46782;BME280;32541;46.298;11.506;2023-04-07T00:23:43;89368.06;;;1.22;53.56
46782;BME280;32541;46.298;11.506;2023-04-07T00:26:09;89362.09;;;1.23;53.10
46782;BME280;32541;46.298;11.506;2023-04-07T00:28:34;89354.13;;;1.38;52.15
46782;BME280;32541;46.298;11.506;2023-04-07T00:31:00;89356.06;;;1.51;52.39
46782;BME280;32541;46.298;11.506;2023-04-07T00:33:25;89361.00;;;1.39;52.98
46782;BME280;32541;46.298;11.506;2023-04-07T00:35:51;89354.59;;;1.29;52.96
46782;BME280;32541;46.298;11.506;2023-04-07T00:38:16;89349.44;;;1.39;53.13
46782;BME280;32541;46.298;11.506;2023-04-07T00:40:41;89359.19;;;1.21;53.42
46782;BME280;32541;46.298;11.506;2023-04-07T00:43:07;89342.88;;;1.34;53.43
46782;BME280;32541;46.298;11.506;2023-04-07T00:45:32;89348.25;;;1.27;53.41
46782;BME280;32541;46.298;11.506;2023-04-07T00:47:58;89342.94;;;1.21;53.22
46782;BME280;32541;46.298;11.506;2023-04-07T00:50:24;89344.81;;;1.26;53.13
46782;BME280;32541;46.298;11.506;2023-04-07T00:52:49;89339.66;;;1.36;53.33
46782;BME280;32541;46.298;11.506;2023-04-07T00:55:15;89331.53;;;1.36;53.87
46782;BME280;32541;46.298;11.506;2023-04-07T00:57:40;89335.16;;;1.38;53.17
46782;BME280;32541;46.298;11.506;2023-04-07T01:00:06;89334.25;;;1.36;53.36
46782;BME280;32541;46.298;11.506;2023-04-07T01:02:41;89337.88;;;1.38;53.16
46782;BME280;32541;46.298;11.506;2023-04-07T01:05:14;89333.66;;;1.30;54.44
46782;BME280;32541;46.298;11.506;2023-04-07T01:07:57;89331.44;;;1.28;53.82
46782;BME280;32541;46.298;11.506;2023-04-07T01:10:38;89324.66;;;1.35;53.33
46782;BME280;32541;46.298;11.506;2023-04-07T01:13:09;89322.88;;;1.37;53.28
46782;BME280;32541;46.298;11.506;2023-04-07T01:15:38;89316.66;;;1.29;53.16
46782;BME280;32541;46.298;11.506;2023-04-07T01:18:12;89315.28;;;1.36;53.69
46782;BME280;32541;46.298;11.506;2023-04-07T01:20:42;89317.59;;;1.32;53.69
46782;BME280;32541;46.298;11.506;2023-04-07T01:23:08;89310.94;;;1.33;53.34
46782;BME280;32541;46.298;11.506;2023-04-07T01:31:02;89303.19;;;1.37;53.79
46782;BME280;32541;46.298;11.506;2023-04-07T01:33:30;89304.03;;;1.32;53.69
46782;BME280;32541;46.298;11.506;2023-04-07T01:35:58;89309.88;;;1.36;54.26
46782;BME280;32541;46.298;11.506;2023-04-07T01:38:26;89308.53;;;1.50;54.32
46782;BME280;32541;46.298;11.506;2023-04-07T01:40:54;89307.22;;;1.64;54.07
46782;BME280;32541;46.298;11.506;2023-04-07T01:43:21;89308.59;;;1.57;53.10
46782;BME280;32541;46.298;11.506;2023-04-07T01:45:47;89311.53;;;1.39;53.61
46782;BME280;32541;46.298;11.506;2023-04-07T01:48:14;89318.03;;;1.23;53.97
46782;BME280;32541;46.298;11.506;2023-04-07T01:50:40;89312.63;;;1.23;54.08
46782;BME280;32541;46.298;11.506;2023-04-07T01:53:06;89315.34;;;1.23;54.39
46782;BME280;32541;46.298;11.506;2023-04-07T01:55:32;89316.38;;;1.20;55.34
46782;BME280;32541;46.298;11.506;2023-04-07T01:58:03;89306.16;;;1.26;55.21
46782;BME280;32541;46.298;11.506;2023-04-07T02:00:29;89308.34;;;1.27;54.51
46782;BME280;32541;46.298;11.506;2023-04-07T02:02:58;89293.81;;;1.38;54.76
46782;BME280;32541;46.298;11.506;2023-04-07T02:05:28;89295.91;;;1.32;54.50
46782;BME280;32541;46.298;11.506;2023-04-07T02:07:59;89287.78;;;1.32;54.05
46782;BME280;32541;46.298;11.506;2023-04-07T02:10:27;89289.25;;;1.33;53.95
46782;BME280;32541;46.298;11.506;2023-04-07T02:12:54;89286.41;;;1.38;54.27
46782;BME280;32541;46.298;11.506;2023-04-07T02:15:22;89283.16;;;1.60;53.17
46782;BME280;32541;46.298;11.506;2023-04-07T02:17:51;89287.53;;;1.43;53.22
46782;BME280;32541;46.298;11.506;2023-04-07T02:20:19;89286.75;;;1.35;53.81
46782;BME280;32541;46.298;11.506;2023-04-07T02:22:45;89284.56;;;1.33;53.95
46782;BME280;32541;46.298;11.506;2023-04-07T02:27:48;89282.38;;;1.32;54.04
46782;BME280;32541;46.298;11.506;2023-04-07T02:30:13;89278.63;;;1.35;53.43
46782;BME280;32541;46.298;11.506;2023-04-07T02:32:39;89275.16;;;1.34;53.60
46782;BME280;32541;46.298;11.506;2023-04-07T02:35:05;89280.91;;;1.31;53.87
46782;BME280;32541;46.298;11.506;2023-04-07T02:37:31;89273.19;;;1.35;52.95
46782;BME280;32541;46.298;11.506;2023-04-07T02:39:56;89265.47;;;1.39;51.88
46782;BME280;32541;46.298;11.506;2023-04-07T02:42:22;89267.97;;;1.37;53.20
46782;BME280;32541;46.298;11.506;2023-04-07T02:44:47;89273.00;;;1.33;55.26
46782;BME280;32541;46.298;11.506;2023-04-07T02:47:13;89274.84;;;1.17;53.65
46782;BME280;32541;46.298;11.506;2023-04-07T02:49:38;89264.75;;;1.18;53.69
46782;BME280;32541;46.298;11.506;2023-04-07T02:52:04;89272.13;;;1.17;54.28
46782;BME280;32541;46.298;11.506;2023-04-07T02:54:29;89268.63;;;1.09;53.30
46782;BME280;32541;46.298;11.506;2023-04-07T02:56:54;89265.16;;;1.22;52.77
46782;BME280;32541;46.298;11.506;2023-04-07T02:59:21;89269.44;;;1.17;52.47
46782;BME280;32541;46.298;11.506;2023-04-07T03:01:46;89263.81;;;1.15;53.55
46782;BME280;32541;46.298;11.506;2023-04-07T03:04:12;89263.38;;;1.24;54.40
46782;BME280;32541;46.298;11.506;2023-04-07T03:06:37;89262.56;;;1.37;54.24
46782;BME280;32541;46.298;11.506;2023-04-07T03:09:03;89257.28;;;1.31;53.87
46782;BME280;32541;46.298;11.506;2023-04-07T03:11:28;89262.56;;;1.37;54.07
46782;BME280;32541;46.298;11.506;2023-04-07T03:13:54;89259.19;;;1.23;53.52
46782;BME280;32541;46.298;11.506;2023-04-07T03:16:19;89262.44;;;1.22;53.39
46782;BME280;32541;46.298;11.506;2023-04-07T03:18:45;89256.81;;;1.20;54.64
46782;BME280;32541;46.298;11.506;2023-04-07T03:21:11;89258.69;;;1.25;54.98
46782;BME280;32541;46.298;11.506;2023-04-07T03:23:37;89249.00;;;1.16;56.89
46782;BME280;32541;46.298;11.506;2023-04-07T03:26:02;89240.06;;;1.21;56.85
46782;BME280;32541;46.298;11.506;2023-04-07T03:28:28;89246.91;;;1.22;56.77
46782;BME280;32541;46.298;11.506;2023-04-07T03:30:53;89244.31;;;1.17;56.04
46782;BME280;32541;46.298;11.506;2023-04-07T03:33:19;89247.91;;;1.11;55.97
46782;BME280;32541;46.298;11.506;2023-04-07T03:35:45;89246.25;;;1.29;55.35
46782;BME280;32541;46.298;11.506;2023-04-07T03:38:10;89252.78;;;1.13;55.12
46782;BME280;32541;46.298;11.506;2023-04-07T03:40:36;89262.44;;;1.22;54.84
46782;BME280;32541;46.298;11.506;2023-04-07T03:43:01;89260.25;;;1.20;54.93
46782;BME280;32541;46.298;11.506;2023-04-07T03:45:27;89255.16;;;1.17;53.83
46782;BME280;32541;46.298;11.506;2023-04-07T03:47:52;89263.50;;;1.19;53.36
46782;BME280;32541;46.298;11.506;2023-04-07T03:50:18;89253.38;;;1.19;53.26
46782;BME280;32541;46.298;11.506;2023-04-07T03:52:44;89259.47;;;1.12;54.14
46782;BME280;32541;46.298;11.506;2023-04-07T03:55:10;89253.00;;;1.15;54.07
46782;BME280;32541;46.298;11.506;2023-04-07T03:57:35;89251.81;;;1.24;52.97
46782;BME280;32541;46.298;11.506;2023-04-07T04:00:01;89258.13;;;1.26;52.33
46782;BME280;32541;46.298;11.506;2023-04-07T04:02:27;89246.19;;;1.22;53.00
46782;BME280;32541;46.298;11.506;2023-04-07T04:04:52;89261.75;;;1.08;53.54
46782;BME280;32541;46.298;11.506;2023-04-07T04:07:17;89259.38;;;1.04;53.06
46782;BME280;32541;46.298;11.506;2023-04-07T04:09:43;89255.25;;;1.03;52.91
46782;BME280;32541;46.298;11.506;2023-04-07T04:12:08;89255.25;;;1.03;53.11
46782;BME280;32541;46.298;11.506;2023-04-07T04:14:33;89246.91;;;1.01;53.38
46782;BME280;32541;46.298;11.506;2023-04-07T04:16:59;89250.88;;;1.00;52.77
46782;BME280;32541;46.298;11.506;2023-04-07T04:19:24;89248.50;;;0.97;52.23
46782;BME280;32541;46.298;11.506;2023-04-07T04:21:50;89241.03;;;1.10;51.70
46782;BME280;32541;46.298;11.506;2023-04-07T04:24:15;89234.97;;;1.18;51.55
46782;BME280;32541;46.298;11.506;2023-04-07T04:26:41;89234.56;;;1.13;52.11
46782;BME280;32541;46.298;11.506;2023-04-07T04:29:06;89241.56;;;1.09;52.88
46782;BME280;32541;46.298;11.506;2023-04-07T04:31:32;89239.84;;;0.98;53.51
46782;BME280;32541;46.298;11.506;2023-04-07T04:33:57;89231.72;;;0.98;53.10
46782;BME280;32541;46.298;11.506;2023-04-07T04:36:23;89229.94;;;1.01;51.82
46782;BME280;32541;46.298;11.506;2023-04-07T04:38:48;89231.19;;;1.00;51.34
46782;BME280;32541;46.298;11.506;2023-04-07T04:41:14;89232.31;;;1.04;51.46
46782;BME280;32541;46.298;11.506;2023-04-07T04:43:39;89225.59;;;1.19;50.86
46782;BME280;32541;46.298;11.506;2023-04-07T04:46:05;89225.69;;;0.92;50.99
46782;BME280;32541;46.298;11.506;2023-04-07T04:48:30;89234.03;;;0.94;51.42
46782;BME280;32541;46.298;11.506;2023-04-07T04:50:56;89230.88;;;0.83;51.55
46782;BME280;32541;46.298;11.506;2023-04-07T04:53:21;89234.53;;;0.72;52.22
46782;BME280;32541;46.298;11.506;2023-04-07T04:55:47;89235.56;;;0.69;52.05
46782;BME280;32541;46.298;11.506;2023-04-07T04:58:17;89229.56;;;0.63;52.95
46782;BME280;32541;46.298;11.506;2023-04-07T05:00:43;89235.50;;;0.62;52.70
46782;BME280;32541;46.298;11.506;2023-04-07T05:03:08;89239.94;;;0.72;52.33
46782;BME280;32541;46.298;11.506;2023-04-07T05:05:33;89236.28;;;0.83;51.41
46782;BME280;32541;46.298;11.506;2023-04-07T05:07:59;89241.00;;;0.69;51.01
46782;BME280;32541;46.298;11.506;2023-04-07T05:10:25;89241.66;;;0.62;51.64
46782;BME280;32541;46.298;11.506;2023-04-07T05:12:50;89246.13;;;0.60;51.31
46782;BME280;32541;46.298;11.506;2023-04-07T05:15:16;89255.84;;;0.42;52.73
46782;BME280;32541;46.298;11.506;2023-04-07T05:17:41;89262.59;;;0.48;51.89
46782;BME280;32541;46.298;11.506;2023-04-07T05:20:08;89262.19;;;0.44;51.38
46782;BME280;32541;46.298;11.506;2023-04-07T05:22:34;89269.78;;;0.33;50.53
46782;BME280;32541;46.298;11.506;2023-04-07T05:25:00;89273.97;;;0.34;50.08
46782;BME280;32541;46.298;11.506;2023-04-07T05:27:26;89275.63;;;0.37;50.59
46782;BME280;32541;46.298;11.506;2023-04-07T05:29:51;89285.06;;;0.43;51.39
46782;BME280;32541;46.298;11.506;2023-04-07T05:32:17;89285.81;;;0.44;51.85
46782;BME280;32541;46.298;11.506;2023-04-07T05:34:43;89284.03;;;0.46;54.98
46782;BME280;32541;46.298;11.506;2023-04-07T05:37:08;89279.97;;;0.40;54.18
46782;BME280;32541;46.298;11.506;2023-04-07T05:39:34;89277.16;;;0.45;53.39
46782;BME280;32541;46.298;11.506;2023-04-07T05:41:59;89274.50;;;0.66;58.16
46782;BME280;32541;46.298;11.506;2023-04-07T05:44:26;89275.34;;;0.74;54.86
46782;BME280;32541;46.298;11.506;2023-04-07T05:46:51;89265.56;;;0.71;53.68
46782;BME280;32541;46.298;11.506;2023-04-07T05:49:17;89271.09;;;0.86;52.47
46782;BME280;32541;46.298;11.506;2023-04-07T05:51:42;89264.03;;;0.83;51.98
46782;BME280;32541;46.298;11.506;2023-04-07T05:54:07;89266.66;;;0.89;51.35
46782;BME280;32541;46.298;11.506;2023-04-07T05:56:33;89265.06;;;0.93;51.81
46782;BME280;32541;46.298;11.506;2023-04-07T05:58:58;89266.25;;;1.05;52.34
46782;BME280;32541;46.298;11.506;2023-04-07T06:01:24;89273.50;;;1.10;51.78
46782;BME280;32541;46.298;11.506;2023-04-07T06:03:50;89271.63;;;1.19;52.11
46782;BME280;32541;46.298;11.506;2023-04-07T06:06:15;89271.81;;;1.21;51.31
46782;BME280;32541;46.298;11.506;2023-04-07T06:08:41;89271.34;;;1.30;51.18
46782;BME280;32541;46.298;11.506;2023-04-07T06:11:06;89270.66;;;1.57;53.79
46782;BME280;32541;46.298;11.506;2023-04-07T06:13:32;89273.97;;;1.63;53.65
46782;BME280;32541;46.298;11.506;2023-04-07T06:15:57;89274.78;;;1.51;52.72
46782;BME280;32541;46.298;11.506;2023-04-07T06:18:22;89274.31;;;1.60;54.37
46782;BME280;32541;46.298;11.506;2023-04-07T06:20:48;89274.44;;;1.75;49.81
46782;BME280;32541;46.298;11.506;2023-04-07T06:23:13;89267.84;;;1.91;48.95
46782;BME280;32541;46.298;11.506;2023-04-07T06:25:38;89275.31;;;1.98;50.59
46782;BME280;32541;46.298;11.506;2023-04-07T06:28:04;89273.94;;;2.12;50.52
46782;BME280;32541;46.298;11.506;2023-04-07T06:30:30;89278.50;;;1.89;51.12
46782;BME280;32541;46.298;11.506;2023-04-07T06:32:55;89262.72;;;1.80;52.66
46782;BME280;32541;46.298;11.506;2023-04-07T06:35:21;89265.75;;;1.77;53.64
46782;BME280;32541;46.298;11.506;2023-04-07T06:37:46;89267.69;;;1.68;53.40
46782;BME280;32541;46.298;11.506;2023-04-07T06:40:12;89265.78;;;1.84;52.50
46782;BME280;32541;46.298;11.506;2023-04-07T06:42:37;89265.22;;;2.06;51.56
46782;BME280;32541;46.298;11.506;2023-04-07T06:45:02;89261.78;;;2.06;50.35
46782;BME280;32541;46.298;11.506;2023-04-07T06:47:28;89262.38;;;2.12;51.92
46782;BME280;32541;46.298;11.506;2023-04-07T06:49:53;89262.78;;;2.23;51.03
46782;BME280;32541;46.298;11.506;2023-04-07T06:52:19;89255.28;;;2.37;50.43
46782;BME280;32541;46.298;11.506;2023-04-07T06:54:44;89264.00;;;2.51;50.56
46782;BME280;32541;46.298;11.506;2023-04-07T06:57:10;89263.00;;;2.69;49.99
46782;BME280;32541;46.298;11.506;2023-04-07T06:59:39;89250.72;;;2.83;48.78
46782;BME280;32541;46.298;11.506;2023-04-07T07:02:04;89260.59;;;3.09;47.22
46782;BME280;32541;46.298;11.506;2023-04-07T07:04:31;89255.16;;;3.16;46.45
46782;BME280;32541;46.298;11.506;2023-04-07T07:06:57;89249.41;;;3.35;43.76
46782;BME280;32541;46.298;11.506;2023-04-07T07:09:22;89250.13;;;3.51;43.81
46782;BME280;32541;46.298;11.506;2023-04-07T07:11:48;89245.97;;;3.34;44.35
46782;BME280;32541;46.298;11.506;2023-04-07T07:14:13;89242.88;;;3.30;45.24
46782;BME280;32541;46.298;11.506;2023-04-07T07:16:39;89245.72;;;3.10;47.43
46782;BME280;32541;46.298;11.506;2023-04-07T07:19:05;89243.22;;;3.19;47.97
46782;BME280;32541;46.298;11.506;2023-04-07T07:21:30;89248.31;;;3.61;48.75
46782;BME280;32541;46.298;11.506;2023-04-07T07:23:56;89250.69;;;3.72;46.30
46782;BME280;32541;46.298;11.506;2023-04-07T07:26:21;89243.25;;;3.87;42.83
46782;BME280;32541;46.298;11.506;2023-04-07T07:28:47;89234.69;;;4.14;43.25
46782;BME280;32541;46.298;11.506;2023-04-07T07:31:12;89236.47;;;4.26;46.40
46782;BME280;32541;46.298;11.506;2023-04-07T07:33:40;89227.19;;;4.37;45.88
46782;BME280;32541;46.298;11.506;2023-04-07T07:36:08;89220.31;;;4.36;45.77
46782;BME280;32541;46.298;11.506;2023-04-07T07:38:33;89219.75;;;4.37;44.19
46782;BME280;32541;46.298;11.506;2023-04-07T07:40:59;89218.22;;;4.59;44.93
46782;BME280;32541;46.298;11.506;2023-04-07T07:43:24;89204.56;;;5.07;43.23
46782;BME280;32541;46.298;11.506;2023-04-07T07:45:50;89198.22;;;5.04;44.61
46782;BME280;32541;46.298;11.506;2023-04-07T07:48:15;89197.84;;;5.08;44.14
46782;BME280;32541;46.298;11.506;2023-04-07T07:50:41;89195.16;;;5.57;45.96
46782;BME280;32541;46.298;11.506;2023-04-07T07:53:07;89193.44;;;5.69;42.30
46782;BME280;32541;46.298;11.506;2023-04-07T07:55:32;89192.78;;;6.03;39.37
46782;BME280;32541;46.298;11.506;2023-04-07T07:57:58;89187.34;;;6.71;40.11
46782;BME280;32541;46.298;11.506;2023-04-07T08:00:23;89186.50;;;6.96;38.50
46782;BME280;32541;46.298;11.506;2023-04-07T08:02:48;89181.44;;;7.19;37.25
46782;BME280;32541;46.298;11.506;2023-04-07T08:05:14;89175.72;;;7.24;37.21
46782;BME280;32541;46.298;11.506;2023-04-07T08:07:40;89174.44;;;6.99;35.51
46782;BME280;32541;46.298;11.506;2023-04-07T08:10:07;89167.75;;;6.48;37.16
46782;BME280;32541;46.298;11.506;2023-04-07T08:12:33;89168.06;;;6.69;36.60
46782;BME280;32541;46.298;11.506;2023-04-07T08:14:58;89164.09;;;6.80;36.26
46782;BME280;32541;46.298;11.506;2023-04-07T08:17:23;89168.47;;;6.66;35.91
46782;BME280;32541;46.298;11.506;2023-04-07T08:19:49;89162.63;;;6.35;37.23
46782;BME280;32541;46.298;11.506;2023-04-07T08:22:14;89168.88;;;6.11;38.30
46782;BME280;32541;46.298;11.506;2023-04-07T08:24:40;89165.34;;;6.01;37.82
46782;BME280;32541;46.298;11.506;2023-04-07T08:27:05;89169.53;;;6.19;37.82
46782;BME280;32541;46.298;11.506;2023-04-07T08:29:31;89174.44;;;5.79;40.24
46782;BME280;32541;46.298;11.506;2023-04-07T08:31:56;89168.66;;;6.17;39.01
46782;BME280;32541;46.298;11.506;2023-04-07T08:34:21;89174.16;;;6.09;39.11
46782;BME280;32541;46.298;11.506;2023-04-07T08:36:47;89166.00;;;6.26;39.36
46782;BME280;32541;46.298;11.506;2023-04-07T08:39:12;89163.56;;;6.47;38.37
46782;BME280;32541;46.298;11.506;2023-04-07T08:41:39;89156.69;;;7.17;38.05
46782;BME280;32541;46.298;11.506;2023-04-07T08:44:09;89158.66;;;7.70;36.53
46782;BME280;32541;46.298;11.506;2023-04-07T08:46:37;89160.81;;;7.71;35.71
46782;BME280;32541;46.298;11.506;2023-04-07T08:49:07;89155.88;;;8.06;35.74
46782;BME280;32541;46.298;11.506;2023-04-07T08:51:36;89159.16;;;8.05;35.21
46782;BME280;32541;46.298;11.506;2023-04-07T08:54:12;89149.25;;;7.63;34.09
46782;BME280;32541;46.298;11.506;2023-04-07T08:56:39;89156.75;;;7.63;35.46
46782;BME280;32541;46.298;11.506;2023-04-07T08:59:06;89154.84;;;7.92;34.06
46782;BME280;32541;46.298;11.506;2023-04-07T09:01:34;89160.78;;;8.17;33.30
46782;BME280;32541;46.298;11.506;2023-04-07T09:04:04;89155.81;;;7.41;34.84
46782;BME280;32541;46.298;11.506;2023-04-07T09:06:30;89142.56;;;7.83;35.56
46782;BME280;32541;46.298;11.506;2023-04-07T09:09:00;89154.28;;;8.03;34.23
46782;BME280;32541;46.298;11.506;2023-04-07T09:11:26;89145.91;;;7.55;34.95
46782;BME280;32541;46.298;11.506;2023-04-07T09:13:52;89152.75;;;7.73;36.08
46782;BME280;32541;46.298;11.506;2023-04-07T09:16:17;89152.81;;;7.93;35.62
46782;BME280;32541;46.298;11.506;2023-04-07T09:18:43;89149.63;;;7.96;34.46
46782;BME280;32541;46.298;11.506;2023-04-07T09:21:08;89142.66;;;8.31;34.75
46782;BME280;32541;46.298;11.506;2023-04-07T09:23:40;89142.22;;;8.73;34.40
46782;BME280;32541;46.298;11.506;2023-04-07T09:26:23;89131.66;;;9.08;34.46
46782;BME280;32541;46.298;11.506;2023-04-07T09:28:57;89123.81;;;9.24;33.75
46782;BME280;32541;46.298;11.506;2023-04-07T09:31:43;89120.84;;;9.01;32.90
46782;BME280;32541;46.298;11.506;2023-04-07T09:34:26;89110.38;;;9.28;34.06
46782;BME280;32541;46.298;11.506;2023-04-07T09:36:52;89114.19;;;9.04;32.41
46782;BME280;32541;46.298;11.506;2023-04-07T09:39:18;89110.81;;;9.24;32.77
46782;BME280;32541;46.298;11.506;2023-04-07T09:41:44;89106.56;;;9.52;32.46
46782;BME280;32541;46.298;11.506;2023-04-07T09:44:09;89101.06;;;9.83;32.78
46782;BME280;32541;46.298;11.506;2023-04-07T09:46:35;89100.56;;;10.27;33.00
46782;BME280;32541;46.298;11.506;2023-04-07T09:49:02;89098.09;;;10.96;31.89
46782;BME280;32541;46.298;11.506;2023-04-07T09:51:31;89086.97;;;11.50;30.97
46782;BME280;32541;46.298;11.506;2023-04-07T09:53:58;89090.25;;;11.93;31.55
46782;BME280;32541;46.298;11.506;2023-04-07T09:56:23;89070.88;;;12.51;31.14
46782;BME280;32541;46.298;11.506;2023-04-07T09:58:51;89083.06;;;12.60;30.96
46782;BME280;32541;46.298;11.506;2023-04-07T10:01:18;89076.34;;;13.00;31.16
46782;BME280;32541;46.298;11.506;2023-04-07T10:03:44;89067.06;;;13.07;29.99
46782;BME280;32541;46.298;11.506;2023-04-07T10:06:11;89074.09;;;13.21;29.86
46782;BME280;32541;46.298;11.506;2023-04-07T10:08:39;89065.78;;;11.41;28.94
46782;BME280;32541;46.298;11.506;2023-04-07T10:11:05;89069.75;;;11.73;30.20
46782;BME280;32541;46.298;11.506;2023-04-07T10:13:33;89067.84;;;10.96;30.18
46782;BME280;32541;46.298;11.506;2023-04-07T10:16:02;89051.84;;;11.04;31.07
46782;BME280;32541;46.298;11.506;2023-04-07T10:18:29;89060.91;;;11.86;29.86
46782;BME280;32541;46.298;11.506;2023-04-07T10:20:56;89048.63;;;11.20;31.61
46782;BME280;32541;46.298;11.506;2023-04-07T10:23:31;89053.13;;;11.83;30.75
46782;BME280;32541;46.298;11.506;2023-04-07T10:26:01;89049.53;;;11.80;28.87
46782;BME280;32541;46.298;11.506;2023-04-07T10:28:29;89049.13;;;11.28;29.42
46782;BME280;32541;46.298;11.506;2023-04-07T10:30:56;89041.53;;;10.93;31.52
46782;BME280;32541;46.298;11.506;2023-04-07T10:33:45;89041.38;;;10.47;30.72
46782;BME280;32541;46.298;11.506;2023-04-07T10:36:11;89038.25;;;10.20;32.74
46782;BME280;32541;46.298;11.506;2023-04-07T10:38:37;89032.34;;;10.56;31.33
46782;BME280;32541;46.298;11.506;2023-04-07T10:41:34;89029.94;;;10.95;31.28
46782;BME280;32541;46.298;11.506;2023-04-07T10:44:03;89035.47;;;11.18;29.93
46782;BME280;32541;46.298;11.506;2023-04-07T10:49:11;89026.66;;;11.31;29.72
46782;BME280;32541;46.298;11.506;2023-04-07T10:51:38;89013.63;;;10.87;29.97
46782;BME280;32541;46.298;11.506;2023-04-07T10:54:22;89016.00;;;11.60;30.42
46782;BME280;32541;46.298;11.506;2023-04-07T10:59:34;89003.88;;;11.07;30.75
46782;BME280;32541;46.298;11.506;2023-04-07T11:04:38;89001.13;;;12.00;30.74
46782;BME280;32541;46.298;11.506;2023-04-07T11:07:04;89006.22;;;12.54;29.33
46782;BME280;32541;46.298;11.506;2023-04-07T11:09:30;88993.00;;;13.15;28.23
46782;BME280;32541;46.298;11.506;2023-04-07T11:11:55;88996.19;;;12.72;28.00
46782;BME280;32541;46.298;11.506;2023-04-07T11:14:29;88992.38;;;13.16;29.23
46782;BME280;32541;46.298;11.506;2023-04-07T11:16:55;89002.34;;;12.34;28.87
46782;BME280;32541;46.298;11.506;2023-04-07T11:19:21;88991.56;;;12.26;29.99
46782;BME280;32541;46.298;11.506;2023-04-07T11:21:47;88991.28;;;12.46;28.43
46782;BME280;32541;46.298;11.506;2023-04-07T11:24:42;88981.66;;;13.22;28.32
46782;BME280;32541;46.298;11.506;2023-04-07T11:27:14;88980.97;;;12.97;29.71
46782;BME280;32541;46.298;11.506;2023-04-07T11:29:39;88985.75;;;12.96;27.69
46782;BME280;32541;46.298;11.506;2023-04-07T11:32:05;88985.31;;;12.63;29.33
46782;BME280;32541;46.298;11.506;2023-04-07T11:34:32;88976.69;;;13.07;28.50
46782;BME280;32541;46.298;11.506;2023-04-07T11:37:17;88966.38;;;13.87;29.09
46782;BME280;32541;46.298;11.506;2023-04-07T11:39:43;88974.34;;;14.36;28.47
46782;BME280;32541;46.298;11.506;2023-04-07T11:42:11;88974.78;;;12.59;28.34
46782;BME280;32541;46.298;11.506;2023-04-07T11:44:45;88979.28;;;12.41;29.22
46782;BME280;32541;46.298;11.506;2023-04-07T11:47:11;88975.44;;;12.97;28.44
46782;BME280;32541;46.298;11.506;2023-04-07T11:49:44;88967.22;;;12.35;29.16
46782;BME280;32541;46.298;11.506;2023-04-07T11:52:10;88981.16;;;11.42;30.31
46782;BME280;32541;46.298;11.506;2023-04-07T11:54:42;89000.06;;;11.12;30.79
46782;BME280;32541;46.298;11.506;2023-04-07T11:57:08;88975.41;;;11.14;31.30
46782;BME280;32541;46.298;11.506;2023-04-07T11:59:36;88964.88;;;11.46;31.57
46782;BME280;32541;46.298;11.506;2023-04-07T12:02:02;88994.09;;;11.39;30.64
46782;BME280;32541;46.298;11.506;2023-04-07T12:04:28;88973.97;;;11.13;31.68
46782;BME280;32541;46.298;11.506;2023-04-07T12:06:54;88992.97;;;10.98;31.08
46782;BME280;32541;46.298;11.506;2023-04-07T12:09:33;88990.59;;;10.92;31.02
46782;BME280;32541;46.298;11.506;2023-04-07T12:12:05;88981.91;;;10.63;31.52
46782;BME280;32541;46.298;11.506;2023-04-07T12:14:32;88989.69;;;10.67;31.96
46782;BME280;32541;46.298;11.506;2023-04-07T12:16:58;88986.97;;;10.45;31.79
46782;BME280;32541;46.298;11.506;2023-04-07T12:19:26;88973.44;;;10.05;32.75
46782;BME280;32541;46.298;11.506;2023-04-07T12:21:53;88979.72;;;9.96;33.36
46782;BME280;32541;46.298;11.506;2023-04-07T12:24:18;88970.09;;;10.07;32.80
46782;BME280;32541;46.298;11.506;2023-04-07T12:26:44;88974.94;;;9.96;32.54
46782;BME280;32541;46.298;11.506;2023-04-07T12:29:10;88976.91;;;10.27;32.34
46782;BME280;32541;46.298;11.506;2023-04-07T12:31:35;88969.66;;;10.43;32.05
46782;BME280;32541;46.298;11.506;2023-04-07T12:34:01;88959.78;;;10.61;32.05
46782;BME280;32541;46.298;11.506;2023-04-07T12:36:27;88967.25;;;10.93;31.70
46782;BME280;32541;46.298;11.506;2023-04-07T12:39:06;88964.03;;;11.32;31.20
46782;BME280;32541;46.298;11.506;2023-04-07T12:41:32;88953.66;;;11.19;31.58
46782;BME280;32541;46.298;11.506;2023-04-07T12:43:58;88959.38;;;10.99;30.90
46782;BME280;32541;46.298;11.506;2023-04-07T12:46:23;88947.06;;;11.12;30.51
46782;BME280;32541;46.298;11.506;2023-04-07T12:48:49;88951.13;;;10.99;30.31
46782;BME280;32541;46.298;11.506;2023-04-07T12:51:15;88936.59;;;11.68;30.72
46782;BME280;32541;46.298;11.506;2023-04-07T12:53:41;88940.69;;;11.56;31.30
46782;BME280;32541;46.298;11.506;2023-04-07T12:56:06;88941.63;;;11.84;31.13
46782;BME280;32541;46.298;11.506;2023-04-07T12:58:32;88937.31;;;11.69;29.94
46782;BME280;32541;46.298;11.506;2023-04-07T13:00:57;88931.69;;;12.15;29.55
46782;BME280;32541;46.298;11.506;2023-04-07T13:03:24;88922.72;;;12.65;30.23
46782;BME280;32541;46.298;11.506;2023-04-07T13:05:50;88918.97;;;12.22;29.35
46782;BME280;32541;46.298;11.506;2023-04-07T13:08:15;88924.81;;;11.91;30.84
46782;BME280;32541;46.298;11.506;2023-04-07T13:10:41;88916.03;;;11.58;30.21
46782;BME280;32541;46.298;11.506;2023-04-07T13:13:06;88919.84;;;11.76;28.96